createdAt,value
2023-03-04T00:02:03.251Z,84.59
2023-03-04T00:07:11.091Z,84.62
2023-03-04T00:12:16.718Z,84.68
2023-03-04T00:17:17.371Z,84.58
2023-03-04T00:22:16.663Z,84.61
2023-03-04T00:27:15.832Z,84.53
2023-03-04T00:32:16.462Z,84.76
2023-03-04T00:37:15.364Z,84.85
2023-03-04T00:42:18.635Z,84.80
2023-03-04T00:47:18.547Z,84.85
2023-03-04T00:52:17.803Z,84.96
2023-03-04T00:57:18.152Z,84.83
2023-03-04T01:02:19.209Z,84.70
2023-03-04T01:07:19.335Z,84.75
2023-03-04T01:12:18.814Z,84.80
2023-03-04T01:17:18.534Z,84.80
2023-03-04T01:22:19.180Z,84.78
2023-03-04T01:27:19.839Z,84.64
2023-03-04T01:32:19.313Z,84.37
2023-03-04T01:37:18.735Z,84.33
2023-03-04T01:42:24.859Z,84.45
2023-03-04T01:47:28.134Z,84.42
2023-03-04T01:52:28.859Z,84.42
2023-03-04T01:57:37.236Z,84.32
2023-03-04T02:02:36.068Z,84.14
2023-03-04T02:07:35.458Z,84.27
2023-03-04T02:12:35.253Z,84.45
2023-03-04T02:17:36.394Z,84.48
2023-03-04T02:22:41.713Z,84.54
2023-03-04T02:27:40.564Z,84.50
2023-03-04T02:32:39.550Z,84.62
2023-03-04T02:37:40.211Z,84.70
2023-03-04T02:42:39.702Z,84.87
2023-03-04T02:47:41.820Z,84.77
2023-03-04T02:52:41.346Z,84.86
2023-03-04T02:57:41.183Z,84.96
2023-03-04T03:02:45.808Z,85.10
2023-03-04T03:07:45.523Z,85.14
2023-03-04T03:12:45.424Z,85.20
2023-03-04T03:17:46.873Z,85.21
2023-03-04T03:22:47.963Z,85.33
2023-03-04T03:27:48.341Z,85.33
2023-03-04T03:32:49.716Z,85.37
2023-03-04T03:37:50.735Z,85.22
2023-03-04T03:42:49.881Z,85.08
2023-03-04T03:47:49.313Z,85.06
2023-03-04T03:52:48.727Z,84.95
2023-03-04T03:57:48.505Z,84.86
2023-03-04T04:02:47.667Z,84.68
2023-03-04T04:07:47.615Z,84.65
2023-03-04T04:12:49.237Z,84.57
2023-03-04T04:17:49.013Z,84.46
2023-03-04T04:22:48.420Z,84.24
2023-03-04T04:27:47.653Z,84.14
2023-03-04T04:32:46.980Z,84.35
2023-03-04T04:37:46.762Z,84.32
2023-03-04T04:42:45.320Z,84.16
2023-03-04T04:47:44.717Z,84.00
2023-03-04T04:52:44.643Z,83.94
2023-03-04T04:57:44.155Z,83.83
2023-03-04T05:02:43.508Z,83.65
2023-03-04T05:07:42.903Z,83.40
2023-03-04T05:12:42.469Z,83.39
2023-03-04T05:17:42.210Z,83.31
2023-03-04T05:22:41.727Z,83.13
2023-03-04T05:27:40.776Z,83.02
2023-03-04T05:32:44.343Z,83.04
2023-03-04T05:37:44.203Z,83.00
2023-03-04T05:42:43.217Z,82.88
2023-03-04T05:47:41.743Z,82.77
2023-03-04T05:52:40.550Z,82.68
2023-03-04T05:57:40.328Z,82.65
2023-03-04T06:02:39.433Z,82.56
2023-03-04T06:07:39.238Z,82.49
2023-03-04T06:12:38.450Z,82.53
2023-03-04T06:17:41.472Z,82.57
2023-03-04T06:22:42.464Z,82.51
2023-03-04T06:27:41.742Z,82.41
2023-03-04T06:32:40.541Z,82.46
2023-03-04T06:37:39.700Z,82.41
2023-03-04T06:42:41.250Z,82.41
2023-03-04T06:47:40.811Z,82.40
2023-03-04T06:52:40.248Z,82.37
2023-03-04T06:57:39.208Z,82.41
2023-03-04T07:02:38.871Z,82.48
2023-03-04T07:07:39.211Z,82.62
2023-03-04T07:12:38.863Z,82.57
2023-03-04T07:17:38.509Z,82.63
2023-03-04T07:22:37.475Z,82.64
2023-03-04T07:27:38.732Z,82.53
2023-03-04T07:32:37.897Z,82.55
2023-03-04T07:37:37.635Z,82.54
2023-03-04T07:42:37.538Z,82.28
2023-03-04T07:47:41.440Z,82.13
2023-03-04T07:52:44.408Z,82.10
2023-03-04T07:57:46.442Z,82.02
2023-03-04T08:02:46.700Z,81.89
2023-03-04T08:07:45.687Z,81.68
2023-03-04T08:12:47.210Z,81.45
2023-03-04T08:17:46.423Z,81.43
2023-03-04T08:22:45.792Z,81.31
2023-03-04T08:27:44.602Z,81.07
2023-03-04T08:32:44.297Z,80.82
2023-03-04T08:37:43.036Z,80.66
2023-03-04T08:42:43.919Z,80.54
2023-03-04T08:47:43.107Z,80.67
2023-03-04T08:52:42.726Z,80.38
2023-03-04T08:57:42.181Z,80.27
2023-03-04T09:02:41.852Z,80.40
2023-03-04T09:07:40.952Z,80.33
2023-03-04T09:12:40.096Z,79.84
2023-03-04T09:17:39.773Z,79.92
2023-03-04T09:22:38.921Z,79.60
2023-03-04T09:27:38.097Z,79.47
2023-03-04T09:32:38.422Z,79.59
2023-03-04T09:37:41.451Z,79.84
2023-03-04T09:42:49.147Z,79.96
2023-03-04T09:47:50.743Z,79.87
2023-03-04T09:53:09.174Z,79.92
2023-03-04T09:58:23.745Z,80.15
2023-03-04T10:03:33.471Z,80.43
2023-03-04T10:08:42.782Z,80.51
2023-03-04T10:13:52.936Z,80.52
2023-03-04T10:18:58.123Z,80.52
2023-03-04T10:23:59.755Z,80.68
2023-03-04T10:29:07.233Z,81.04
2023-03-04T10:34:07.340Z,81.14
2023-03-04T10:39:12.331Z,81.49
2023-03-04T10:44:21.774Z,81.94
2023-03-04T10:49:25.076Z,82.69
2023-03-04T10:54:32.425Z,82.73
2023-03-04T10:59:45.790Z,83.26
2023-03-04T11:04:50.600Z,83.63
2023-03-04T11:09:50.629Z,84.07
2023-03-04T11:14:54.050Z,84.25
2023-03-04T11:20:03.860Z,84.78
2023-03-04T11:25:13.856Z,85.05
2023-03-04T11:30:35.815Z,85.22
2023-03-04T11:35:45.550Z,85.06
2023-03-04T11:40:54.772Z,84.90
2023-03-04T11:46:46.511Z,84.95
2023-03-04T11:51:54.906Z,85.41
2023-03-04T11:56:59.815Z,85.50
2023-03-04T12:02:16.468Z,85.80
2023-03-04T12:07:45.298Z,86.20
2023-03-04T12:13:14.697Z,85.94
2023-03-04T12:18:37.493Z,86.09
2023-03-04T12:24:27.331Z,86.52
2023-03-04T12:29:41.822Z,86.56
2023-03-04T12:35:23.070Z,87.30
2023-03-04T12:40:43.717Z,87.89
2023-03-04T12:45:55.834Z,87.08
2023-03-04T12:51:10.156Z,87.03
2023-03-04T12:56:27.736Z,86.27
2023-03-04T13:01:34.172Z,85.73
2023-03-04T13:06:45.559Z,84.23
2023-03-04T13:12:13.857Z,83.36
2023-03-04T13:17:44.699Z,83.26
2023-03-04T13:22:56.718Z,83.10
2023-03-04T13:28:25.223Z,83.17
2023-03-04T13:34:06.352Z,82.41
2023-03-04T13:39:28.818Z,81.00
2023-03-04T13:45:02.431Z,83.26
2023-03-04T13:50:37.682Z,84.25
2023-03-04T13:55:43.230Z,84.62
2023-03-04T14:00:52.882Z,85.19
2023-03-04T14:06:13.137Z,84.62
2023-03-04T14:11:20.826Z,84.19
2023-03-04T14:16:27.947Z,83.59
2023-03-04T14:21:28.883Z,81.69
2023-03-04T14:26:31.458Z,79.62
2023-03-04T14:31:37.450Z,78.25
2023-03-04T14:36:40.474Z,77.27
2023-03-04T14:41:44.233Z,76.47
2023-03-04T14:47:04.599Z,76.22
2023-03-04T14:52:06.656Z,74.73
2023-03-04T14:57:26.315Z,71.66
2023-03-04T15:02:33.352Z,69.31
2023-03-04T15:07:38.930Z,67.64
2023-03-04T15:12:41.625Z,65.68
2023-03-04T15:17:42.772Z,64.09
2023-03-04T15:23:03.510Z,62.55
2023-03-04T15:28:04.141Z,60.90
2023-03-04T15:33:03.972Z,60.50
2023-03-04T15:38:03.766Z,61.18
2023-03-04T15:43:10.367Z,61.44
2023-03-04T15:48:15.410Z,61.12
2023-03-04T15:53:23.139Z,61.43
2023-03-04T15:58:23.232Z,61.51
2023-03-04T16:03:26.386Z,60.68
2023-03-04T16:08:29.598Z,59.70
2023-03-04T16:13:28.992Z,59.87
2023-03-04T16:18:28.144Z,58.44
2023-03-04T16:23:28.383Z,56.56
2023-03-04T16:28:28.519Z,55.43
2023-03-04T16:33:27.705Z,57.63
2023-03-04T16:38:34.408Z,56.36
2023-03-04T16:43:33.769Z,56.86
2023-03-04T16:48:33.269Z,57.35
2023-03-04T16:53:39.849Z,56.88
2023-03-04T16:58:39.286Z,55.54
2023-03-04T17:03:39.029Z,54.20
2023-03-04T17:08:39.176Z,52.69
2023-03-04T17:13:39.579Z,53.81
2023-03-04T17:18:39.203Z,51.41
2023-03-04T17:23:39.026Z,54.07
2023-03-04T17:28:38.645Z,55.17
2023-03-04T17:33:38.268Z,55.16
2023-03-04T17:38:37.831Z,55.25
2023-03-04T17:43:37.226Z,52.73
2023-03-04T17:48:36.672Z,52.59
2023-03-04T17:53:36.532Z,52.50
2023-03-04T17:58:38.301Z,51.83
2023-03-04T18:03:37.883Z,52.32
2023-03-04T18:08:37.359Z,53.08
2023-03-04T18:13:38.923Z,54.27
2023-03-04T18:18:38.259Z,54.44
2023-03-04T18:23:38.558Z,54.54
2023-03-04T18:28:38.814Z,54.86
2023-03-04T18:33:40.036Z,54.00
2023-03-04T18:38:40.714Z,53.53
2023-03-04T18:43:40.964Z,54.15
2023-03-04T18:48:46.778Z,54.73
2023-03-04T18:53:46.157Z,55.22
2023-03-04T18:58:50.591Z,55.60
2023-03-04T19:03:50.738Z,56.08
2023-03-04T19:08:55.337Z,56.19
2023-03-04T19:13:54.774Z,55.41
2023-03-04T19:18:56.162Z,55.45
2023-03-04T19:23:55.828Z,55.93
2023-03-04T19:28:56.204Z,55.91
2023-03-04T19:33:55.735Z,55.84
2023-03-04T19:38:55.682Z,56.21
2023-03-04T19:43:56.591Z,56.22
2023-03-04T19:48:56.322Z,56.36
2023-03-04T19:53:56.496Z,56.04
2023-03-04T19:58:58.219Z,56.72
2023-03-04T20:03:58.590Z,55.98
2023-03-04T20:09:01.948Z,57.17
2023-03-04T20:14:02.423Z,57.49
2023-03-04T20:19:01.847Z,57.13
2023-03-04T20:24:03.137Z,57.51
2023-03-04T20:29:02.914Z,57.69
2023-03-04T20:34:02.930Z,57.37
2023-03-04T20:39:08.279Z,57.46
2023-03-04T20:44:15.136Z,58.22
2023-03-04T20:49:20.026Z,58.55
2023-03-04T20:54:19.552Z,58.63
2023-03-04T20:59:19.908Z,58.46
2023-03-04T21:04:19.714Z,58.33
2023-03-04T21:09:20.907Z,58.06
2023-03-04T21:14:23.197Z,58.32
2023-03-04T21:19:27.628Z,58.57
2023-03-04T21:24:30.550Z,58.33
2023-03-04T21:29:30.829Z,58.13
2023-03-04T21:34:35.921Z,58.07
2023-03-04T21:39:37.093Z,58.69
2023-03-04T21:44:48.666Z,58.78
2023-03-04T21:49:49.660Z,58.71
2023-03-04T21:54:49.827Z,58.35
2023-03-04T21:59:49.474Z,58.57
2023-03-04T22:04:49.197Z,58.66
2023-03-04T22:09:48.875Z,58.56
2023-03-04T22:14:47.813Z,58.91
2023-03-04T22:19:47.659Z,59.09
2023-03-04T22:24:46.347Z,58.98
2023-03-04T22:29:46.028Z,59.19
2023-03-04T22:34:45.436Z,59.47
2023-03-04T22:39:44.687Z,59.68
2023-03-04T22:44:44.258Z,59.90
2023-03-04T22:49:47.648Z,59.96
2023-03-04T22:54:47.538Z,60.21
2023-03-04T22:59:48.520Z,60.24
2023-03-04T23:04:48.033Z,60.48
2023-03-04T23:09:47.512Z,60.55
2023-03-04T23:14:46.817Z,60.99
2023-03-04T23:19:45.494Z,61.10
2023-03-04T23:24:45.039Z,61.19
2023-03-04T23:29:44.768Z,60.99
2023-03-04T23:34:43.597Z,61.26
2023-03-04T23:39:43.261Z,61.58
2023-03-04T23:44:43.105Z,61.62
2023-03-04T23:49:42.454Z,61.64
2023-03-04T23:54:41.226Z,61.77
2023-03-04T23:59:41.261Z,61.78
